Impacts TAF Board INFO
FOR SITUATIONAL AWARENESS. NOT TO BE USED FOR FLIGHT PLANNING PURPOSES.
IDs:

KPIT - Pittsburgh Intl, PA, US

Issued at 1120 UTC 23 Mar 2017
Updated at 1406 UTC 23 Mar 2017
Potential Impact None Slight Moderate High
Time1351Z 23/15Z 23/16Z 23/17Z 23/18Z 23/19Z 23/20Z 23/21Z 23/22Z 23/23Z 24/00Z 24/01Z 24/02Z 24/03Z
Type OBS PRVL PRVL PRVL PRVL PRVL PRVL PRVL PRVL PRVL PRVL PRVL PRVL PRVL
VIS 10 >6 >6 >6 >6 >6 >6 >6 >6 >6 >6 >6 >6 >6
CIG -- -- -- -- -- -- -- -- -- -- -- -- -- --
Cover SCT SKC SKC SKC SKC SKC SKC SKC SKC SKC SKC SKC SKC SKC
FltCat VFR VFR VFR VFR VFR VFR VFR VFR VFR VFR VFR VFR VFR VFR
WX -- -- -- -- -- -- -- -- -- -- -- -- -- --
WDir 80 30 30 100 100 100 100 100 100 100 100 100 100 100
WSpd 8 3 3 5 5 5 5 5 5 5 5 5 5 5
WGst -- -- -- -- -- -- -- -- -- -- -- -- -- --

Raw TAF
KPIT 231120Z 2312/2418 03003KT P6SM SKC
  FM231700 10005KT P6SM SKC
  FM240700 17008KT P6SM BKN080
  FM241000 17008KT P6SM VCSH BKN060


Raw METAR
KPIT 231351Z 08008KT 10SM FEW120 SCT250 M02/M11 A3054 RMK AO2 SLP366 T10221111
KPIT 231251Z 11007KT 10SM FEW120 FEW250 M04/M11 A3054 RMK AO2 SLP366 T10441111
KPIT 231151Z 00000KT 10SM FEW250 M08/M11 A3053 RMK AO2 SLP364 T10781111 11050 21089 50005

METAR Board
Radar Display
Forecast Discussion

FOR SITUATIONAL AWARENESS. NOT TO BE USED FOR FLIGHT PLANNING PURPOSES.

Page loaded:  14:06 UTC  |   07:06 AM Pacific  |   08:06 AM Mountain  |   09:06 AM Central  |   10:06 AM Eastern

 

ADVISORIES

FORECASTS

FORECASTS

OBSERVATIONS

USER TOOLS

ABOUT US